Time;durP1;ratioP1;P1;durP2;ratioP2;P2;SDS_P1;SDS_P2;PMS_P1;PMS_P2;Temp;Humidity;BMP_temperature;BMP_pressure;BME280_temperature;BME280_humidity;BME280_pressure;Samples;Min_cycle;Max_cycle;Signal;HPM_P1;HPM_P2
2023/09/15 00:00:32;;;;;;;9.10;8.20;;;;;;;15.74;70.92;98596.13;4977703;28;20117;-71
2023/09/15 00:02:58;;;;;;;9.40;8.57;;;;;;;15.82;70.90;98601.06;4994487;28;20041;-71
2023/09/15 00:05:26;;;;;;;10.48;9.57;;;;;;;15.91;70.37;98596.72;4977336;28;20530;-71
2023/09/15 00:07:51;;;;;;;10.27;9.27;;;;;;;15.93;70.43;98597.28;4961609;28;20053;-71
2023/09/15 00:10:19;;;;;;;10.55;9.55;;;;;;;15.84;70.33;98582.59;4977336;28;20030;-71
2023/09/15 00:12:44;;;;;;;9.07;8.15;;;;;;;15.80;70.47;98586.91;4977204;28;20041;-71
2023/09/15 00:15:10;;;;;;;9.75;8.80;;;;;;;15.97;70.22;98595.63;4977251;28;20397;-73
2023/09/15 00:17:37;;;;;;;10.43;9.32;;;;;;;15.97;70.37;98590.22;4977138;28;20403;-73
2023/09/15 00:20:21;;;;;;;9.68;8.73;;;;;;;15.80;70.45;98584.19;4957751;28;20022;-71
2023/09/15 00:22:52;;;;;;;9.88;8.98;;;;;;;15.76;71.00;98593.97;4968705;28;20038;-71
2023/09/15 00:25:20;;;;;;;9.95;9.05;;;;;;;15.76;70.74;98583.09;4994613;28;20418;-71
2023/09/15 00:27:51;;;;;;;10.20;9.20;;;;;;;15.80;70.68;98593.16;4994469;28;20026;-71
2023/09/15 00:30:18;;;;;;;9.60;8.73;;;;;;;15.73;71.07;98589.88;4977151;28;20486;-72
2023/09/15 00:32:48;;;;;;;10.43;9.27;;;;;;;15.76;70.66;98597.50;4960832;28;20550;-71
2023/09/15 00:35:16;;;;;;;10.57;9.48;;;;;;;15.63;71.19;98589.88;4977150;28;20125;-70
2023/09/15 00:37:43;;;;;;;10.55;9.48;;;;;;;15.54;71.41;98579.78;4961137;28;20076;-70
2023/09/15 00:40:10;;;;;;;9.95;8.95;;;;;;;15.53;71.79;98591.72;4961012;28;20027;-70
2023/09/15 00:42:36;;;;;;;10.32;9.43;;;;;;;15.38;71.87;98586.22;4975994;28;20033;-70
2023/09/15 00:45:05;;;;;;;9.27;8.38;;;;;;;15.37;71.65;98593.53;4960598;28;20069;-70
2023/09/15 00:47:32;;;;;;;10.95;9.05;;;;;;;15.41;71.67;98591.09;4977207;28;20027;-71
2023/09/15 00:49:58;;;;;;;9.70;8.70;;;;;;;15.36;72.38;98588.34;4960442;28;20173;-70
2023/09/15 00:52:27;;;;;;;9.07;8.18;;;;;;;15.33;72.03;98583.47;4956770;28;20406;-70
2023/09/15 00:54:53;;;;;;;9.15;8.25;;;;;;;15.39;72.12;98582.41;4975787;28;20034;-72
2023/09/15 00:57:19;;;;;;;9.10;8.18;;;;;;;15.36;72.17;98591.06;4960396;28;21041;-70
2023/09/15 00:59:44;;;;;;;9.73;7.80;;;;;;;15.30;72.82;98589.44;4960369;28;20437;-70
2023/09/15 01:02:09;;;;;;;9.43;7.82;;;;;;;15.39;72.23;98587.84;4957098;28;20035;-71
2023/09/15 01:04:35;;;;;;;8.60;6.43;;;;;;;15.50;72.20;98592.25;4992528;28;20129;-71
2023/09/15 01:07:05;;;;;;;7.55;6.85;;;;;;;15.51;71.45;98564.84;4994056;28;20025;-73
2023/09/15 01:09:31;;;;;;;8.02;7.05;;;;;;;15.58;71.55;98567.31;4976181;28;20137;-73
2023/09/15 01:11:56;;;;;;;8.15;6.80;;;;;;;15.46;71.75;98555.88;4944087;28;20120;-70
2023/09/15 01:14:22;;;;;;;8.02;7.15;;;;;;;15.64;71.37;98574.38;4975806;28;20133;-70
2023/09/15 01:17:14;;;;;;;8.45;7.60;;;;;;;15.61;71.42;98574.94;4993486;28;20030;-72
2023/09/15 01:19:53;;;;;;;7.88;7.18;;;;;;;15.58;71.34;98579.00;4975194;28;20050;-74
2023/09/15 01:22:53;;;;;;;8.35;7.35;;;;;;;15.48;71.32;98580.84;4993160;28;20038;-70
2023/09/15 01:25:42;;;;;;;9.80;8.27;;;;;;;15.40;71.29;98578.63;4957242;28;20058;-71
2023/09/15 01:28:32;;;;;;;9.18;8.18;;;;;;;15.22;71.53;98578.00;4960036;28;20554;-73
2023/09/15 01:30:58;;;;;;;8.77;7.88;;;;;;;15.32;71.72;98579.13;4964966;28;20039;-71
2023/09/15 01:33:24;;;;;;;9.52;7.75;;;;;;;15.33;71.50;98575.34;4959316;28;20486;-71
2023/09/15 01:35:51;;;;;;;8.82;8.02;;;;;;;15.30;71.70;98573.97;4975951;28;20038;-72
2023/09/15 01:38:16;;;;;;;7.22;6.50;;;;;;;15.20;72.17;98557.63;4975977;28;20030;-71
2023/09/15 01:40:41;;;;;;;8.38;7.15;;;;;;;15.37;71.80;98579.16;4956396;28;20035;-74
2023/09/15 01:43:07;;;;;;;9.90;8.13;;;;;;;15.31;71.61;98563.94;4955213;28;20030;-72
2023/09/15 01:45:32;;;;;;;9.27;8.05;;;;;;;15.35;71.61;98581.31;4975651;28;20483;-73
2023/09/15 01:47:58;;;;;;;8.65;7.85;;;;;;;15.34;71.91;98575.06;4975633;28;20022;-71
2023/09/15 01:50:25;;;;;;;8.38;7.60;;;;;;;15.22;72.11;98575.28;4956211;28;20159;-70
2023/09/15 01:52:50;;;;;;;8.15;7.35;;;;;;;15.19;72.47;98564.97;4955152;28;20030;-70
2023/09/15 01:55:16;;;;;;;8.65;7.28;;;;;;;15.17;72.35;98558.97;4958508;28;20049;-71
2023/09/15 01:57:41;;;;;;;8.10;7.28;;;;;;;15.12;72.34;98561.66;4975542;28;20078;-70
2023/09/15 02:00:08;;;;;;;9.23;8.23;;;;;;;15.07;72.78;98569.00;4959296;28;20034;-70
2023/09/15 02:02:37;;;;;;;10.35;8.20;;;;;;;15.03;72.61;98587.66;4975639;28;20549;-70
2023/09/15 02:05:03;;;;;;;8.68;7.85;;;;;;;14.98;72.37;98587.63;4976132;28;20034;-73
2023/09/15 02:07:28;;;;;;;8.82;7.85;;;;;;;14.90;72.45;98580.03;4975574;28;20417;-71
2023/09/15 02:09:54;;;;;;;8.43;7.68;;;;;;;14.95;72.83;98582.75;4985785;28;20038;-73
2023/09/15 02:12:19;;;;;;;8.75;7.82;;;;;;;14.81;73.07;98587.00;4978536;28;20413;-71
2023/09/15 02:14:45;;;;;;;9.00;7.95;;;;;;;14.87;73.20;98590.56;4975130;28;20037;-70
2023/09/15 02:17:15;;;;;;;8.50;7.63;;;;;;;14.83;72.69;98586.75;4959124;28;20524;-73
2023/09/15 02:19:41;;;;;;;8.98;7.40;;;;;;;14.76;72.78;98584.25;4975155;28;20136;-70
2023/09/15 02:22:07;;;;;;;9.95;8.68;;;;;;;14.65;72.90;98571.72;4959092;28;20022;-71
2023/09/15 02:24:32;;;;;;;9.30;8.32;;;;;;;14.67;73.11;98585.84;4974585;28;20045;-72
2023/09/15 02:26:59;;;;;;;8.77;7.97;;;;;;;14.64;73.58;98586.34;4992487;28;20077;-70
2023/09/15 02:29:25;;;;;;;8.98;7.80;;;;;;;14.61;73.42;98586.88;4992531;28;20053;-70
2023/09/15 02:31:51;;;;;;;8.85;7.85;;;;;;;14.44;74.21;98570.78;4958779;28;20029;-70
2023/09/15 02:34:16;;;;;;;7.93;7.13;;;;;;;14.46;73.81;98574.03;4991998;28;20030;-70
2023/09/15 02:36:42;;;;;;;9.60;7.70;;;;;;;14.53;73.48;98574.63;4974969;28;20457;-70
2023/09/15 02:39:07;;;;;;;8.15;7.38;;;;;;;14.55;73.84;98579.78;4974831;28;20406;-70
2023/09/15 02:41:32;;;;;;;7.80;7.10;;;;;;;14.59;73.79;98577.34;4974807;28;20058;-70
2023/09/15 02:43:59;;;;;;;8.65;7.78;;;;;;;14.56;74.05;98577.91;4992070;28;20030;-70
2023/09/15 02:46:25;;;;;;;8.52;7.20;;;;;;;14.48;73.69;98565.63;4958709;28;20022;-70
2023/09/15 02:48:50;;;;;;;7.93;7.07;;;;;;;14.49;74.39;98575.41;4992312;28;20037;-70
2023/09/15 02:51:16;;;;;;;10.20;7.20;;;;;;;14.50;73.88;98579.75;4957916;28;20390;-70
2023/09/15 02:53:41;;;;;;;8.90;7.72;;;;;;;14.48;73.53;98571.06;4955033;28;20147;-71
2023/09/15 02:56:08;;;;;;;9.82;7.80;;;;;;;14.41;74.04;98570.47;4938842;28;20076;-70
2023/09/15 02:58:36;;;;;;;9.40;8.20;;;;;;;14.40;74.07;98563.41;4958928;28;20042;-72
2023/09/15 03:01:12;;;;;;;9.10;8.13;;;;;;;14.34;73.80;98565.28;4974874;28;20518;-70
2023/09/15 03:03:38;;;;;;;7.90;7.15;;;;;;;14.24;74.51;98573.28;4955105;28;20053;-71
2023/09/15 03:06:05;;;;;;;9.35;7.68;;;;;;;14.35;74.45;98566.88;4975774;28;20030;-71
2023/09/15 03:08:33;;;;;;;9.48;7.78;;;;;;;14.24;75.08;98553.50;4951790;28;20034;-71
2023/09/15 03:10:59;;;;;;;10.20;7.95;;;;;;;14.36;74.63;98565.81;4962335;28;20026;-71
2023/09/15 03:13:25;;;;;;;9.25;7.55;;;;;;;14.29;74.33;98564.38;4977925;28;20049;-70
2023/09/15 03:15:50;;;;;;;9.27;8.38;;;;;;;14.18;74.56;98551.84;4978401;28;20034;-70
2023/09/15 03:18:17;;;;;;;8.35;7.53;;;;;;;14.04;74.97;98542.50;4958919;28;20038;-71
2023/09/15 03:20:42;;;;;;;9.95;7.90;;;;;;;14.15;75.36;98555.06;4957503;28;20019;-71
2023/09/15 03:23:08;;;;;;;8.27;7.15;;;;;;;14.03;74.97;98535.44;4961802;28;20375;-75
2023/09/15 03:25:33;;;;;;;9.23;7.93;;;;;;;14.15;75.04;98557.75;4978165;28;20022;-72
2023/09/15 03:27:59;;;;;;;9.73;8.30;;;;;;;14.17;74.21;98553.72;4978209;28;20089;-70
2023/09/15 03:30:25;;;;;;;8.70;7.75;;;;;;;14.11;74.92;98559.34;4958843;28;20030;-70
2023/09/15 03:32:51;;;;;;;9.45;8.25;;;;;;;13.96;75.02;98537.53;4961699;28;20038;-70
2023/09/15 03:35:16;;;;;;;8.60;7.70;;;;;;;13.98;74.98;98543.53;4961813;28;20070;-71
2023/09/15 03:37:42;;;;;;;9.75;8.43;;;;;;;14.00;75.63;98544.09;4995448;28;20034;-70
2023/09/15 03:40:14;;;;;;;8.82;7.60;;;;;;;13.98;75.16;98540.84;4977846;28;20126;-70
2023/09/15 03:42:39;;;;;;;9.93;7.30;;;;;;;13.90;75.83;98525.88;4977496;28;20112;-71
2023/09/15 03:45:09;;;;;;;8.18;7.38;;;;;;;14.02;75.93;98533.81;4983681;28;20057;-70
2023/09/15 03:47:35;;;;;;;8.52;7.10;;;;;;;14.04;75.42;98539.78;4977809;28;20061;-71
2023/09/15 03:50:02;;;;;;;7.57;6.78;;;;;;;14.06;75.42;98540.34;4977868;28;20462;-70
2023/09/15 03:52:28;;;;;;;8.23;7.40;;;;;;;14.05;75.70;98533.31;4961311;28;20089;-70
2023/09/15 03:54:53;;;;;;;8.60;7.28;;;;;;;13.99;75.26;98537.03;4977905;28;20030;-70
2023/09/15 03:57:18;;;;;;;7.80;6.97;;;;;;;14.00;75.47;98533.28;4961765;28;20413;-72
2023/09/15 03:59:44;;;;;;;7.80;7.00;;;;;;;13.96;75.72;98545.66;4977455;28;20070;-71
2023/09/15 04:02:09;;;;;;;8.15;7.32;;;;;;;13.86;75.38;98533.69;4961359;28;20038;-71
2023/09/15 04:04:35;;;;;;;8.15;7.35;;;;;;;13.90;75.64;98552.13;4957760;28;20121;-71
2023/09/15 04:07:00;;;;;;;9.30;7.50;;;;;;;13.81;75.75;98544.50;4958148;28;20038;-70
2023/09/15 04:09:25;;;;;;;8.50;7.68;;;;;;;13.76;75.94;98530.06;4960530;28;20122;-71
2023/09/15 04:11:51;;;;;;;10.05;7.70;;;;;;;13.90;75.83;98544.81;4960952;28;20041;-71
2023/09/15 04:14:17;;;;;;;7.55;6.82;;;;;;;13.90;75.76;98546.72;4960885;28;20026;-73
2023/09/15 04:16:43;;;;;;;8.32;7.38;;;;;;;13.93;76.06;98548.91;4961222;28;20076;-71
2023/09/15 04:19:09;;;;;;;9.05;8.00;;;;;;;13.82;75.85;98539.88;4960402;28;20081;-71
2023/09/15 04:21:37;;;;;;;9.35;7.68;;;;;;;13.90;76.16;98557.53;4977117;28;20030;-70
2023/09/15 04:24:03;;;;;;;10.20;8.05;;;;;;;13.84;76.66;98562.06;4977144;28;20026;-72
2023/09/15 04:26:29;;;;;;;7.70;6.95;;;;;;;13.78;76.54;98539.56;4994673;28;20034;-71
2023/09/15 04:28:54;;;;;;;10.52;7.78;;;;;;;13.85;76.33;98545.59;4977010;28;20049;-72
2023/09/15 04:31:20;;;;;;;8.98;7.22;;;;;;;13.78;76.58;98547.69;4977034;28;20034;-70
2023/09/15 04:33:45;;;;;;;7.93;7.03;;;;;;;13.82;76.03;98556.94;4960400;28;20113;-72
2023/09/15 04:36:11;;;;;;;11.85;7.40;;;;;;;13.79;76.46;98546.59;4957680;28;20042;-71
2023/09/15 04:38:37;;;;;;;7.75;7.03;;;;;;;13.82;75.85;98550.69;4957573;28;20041;-71
2023/09/15 04:41:04;;;;;;;9.57;7.47;;;;;;;13.81;75.79;98555.31;4969972;28;20173;-72
2023/09/15 04:43:30;;;;;;;9.73;8.32;;;;;;;13.74;75.84;98562.81;4976616;28;20029;-72
2023/09/15 04:45:57;;;;;;;7.97;7.28;;;;;;;13.73;75.90;98558.47;4983537;28;20073;-71
2023/09/15 04:48:22;;;;;;;7.93;7.10;;;;;;;13.58;76.11;98544.75;4977048;28;20026;-71
2023/09/15 04:50:47;;;;;;;9.95;7.63;;;;;;;13.59;76.29;98562.66;4957333;28;20035;-72
2023/09/15 04:53:14;;;;;;;9.52;7.10;;;;;;;13.62;76.75;98556.75;4956873;28;20073;-71
2023/09/15 04:55:41;;;;;;;8.80;7.70;;;;;;;13.62;76.32;98551.31;4970103;28;20038;-71
2023/09/15 04:58:07;;;;;;;7.88;7.07;;;;;;;13.63;76.43;98558.34;4960706;28;20022;-71
2023/09/15 05:00:34;;;;;;;8.73;7.63;;;;;;;13.65;76.52;98564.31;4957186;28;20027;-72
2023/09/15 05:03:02;;;;;;;8.55;7.68;;;;;;;13.54;76.33;98540.94;4960150;28;20450;-71
2023/09/15 05:05:28;;;;;;;10.10;6.60;;;;;;;13.53;76.72;98552.84;4957660;28;20026;-72
2023/09/15 05:07:54;;;;;;;7.05;6.28;;;;;;;13.56;76.43;98546.91;4960444;28;20033;-72
2023/09/15 05:10:22;;;;;;;7.78;6.97;;;;;;;13.63;76.90;98552.94;4976253;28;20031;-71
2023/09/15 05:12:48;;;;;;;7.82;6.30;;;;;;;13.65;76.85;98550.78;4959925;28;20058;-73
2023/09/15 05:15:14;;;;;;;10.07;6.95;;;;;;;13.59;76.83;98546.41;4976395;28;20073;-71
2023/09/15 05:17:40;;;;;;;7.47;6.70;;;;;;;13.73;76.14;98557.66;4960312;28;20141;-71
2023/09/15 05:20:06;;;;;;;10.00;7.00;;;;;;;13.74;77.01;98554.69;4940824;28;20413;-72
2023/09/15 05:22:32;;;;;;;9.05;6.43;;;;;;;13.79;76.63;98557.44;4975619;28;20026;-71
2023/09/15 05:24:58;;;;;;;8.32;6.38;;;;;;;13.70;76.25;98556.25;4944334;28;20026;-71
2023/09/15 05:27:23;;;;;;;8.25;6.25;;;;;;;13.77;76.78;98559.59;4960064;28;20037;-71
2023/09/15 05:29:50;;;;;;;7.30;6.40;;;;;;;13.64;76.53;98538.34;4959488;28;20445;-71
2023/09/15 05:32:16;;;;;;;7.53;6.40;;;;;;;13.86;76.50;98563.47;4972620;28;20039;-76
2023/09/15 05:34:41;;;;;;;7.90;6.05;;;;;;;13.88;76.78;98567.81;4959663;28;20413;-73
2023/09/15 05:37:07;;;;;;;6.45;5.85;;;;;;;13.81;76.32;98560.72;4993461;28;20030;-72
2023/09/15 05:39:32;;;;;;;6.57;5.88;;;;;;;13.96;76.54;98572.75;4956691;28;20042;-71
2023/09/15 05:42:00;;;;;;;6.38;5.80;;;;;;;14.01;76.31;98573.63;4975518;28;20118;-72
2023/09/15 05:44:25;;;;;;;6.82;6.22;;;;;;;13.91;76.04;98542.94;4975684;28;20053;-71
2023/09/15 05:46:52;;;;;;;7.47;5.88;;;;;;;14.00;76.42;98568.47;4993029;28;20034;-71
2023/09/15 05:49:18;;;;;;;6.88;6.03;;;;;;;13.98;76.44;98549.75;4975869;28;20038;-71
2023/09/15 05:51:43;;;;;;;7.40;5.93;;;;;;;14.06;75.74;98562.00;4975489;28;20029;-72
2023/09/15 05:54:09;;;;;;;7.22;5.82;;;;;;;14.16;75.98;98551.28;4992574;28;20042;-73
2023/09/15 05:56:34;;;;;;;9.40;6.72;;;;;;;14.36;75.89;98551.47;4975590;28;20034;-71
2023/09/15 05:58:59;;;;;;;7.22;5.43;;;;;;;14.47;75.98;98564.00;4959674;28;20050;-71
2023/09/15 06:01:25;;;;;;;7.45;5.80;;;;;;;14.56;75.90;98557.03;4975770;28;20030;-72
2023/09/15 06:03:50;;;;;;;5.95;4.57;;;;;;;14.71;75.74;98554.41;4992363;28;20034;-71
2023/09/15 06:06:16;;;;;;;7.05;4.88;;;;;;;14.88;75.94;98555.06;4992779;28;20029;-71
2023/09/15 06:08:42;;;;;;;5.30;4.38;;;;;;;14.98;75.34;98536.09;4959223;28;20042;-70
2023/09/15 06:11:07;;;;;;;5.35;4.68;;;;;;;15.22;74.86;98550.03;4975017;28;20035;-72
2023/09/15 06:13:33;;;;;;;10.23;4.47;;;;;;;15.24;74.40;98531.59;4974574;28;20040;-71
2023/09/15 06:15:59;;;;;;;4.90;4.40;;;;;;;15.48;73.97;98543.66;4975105;28;20045;-70
2023/09/15 06:18:24;;;;;;;5.20;4.70;;;;;;;15.59;73.83;98547.25;4975411;28;20042;-70
2023/09/15 06:20:49;;;;;;;7.82;4.63;;;;;;;15.72;73.69;98544.81;4974975;28;20081;-71
2023/09/15 06:23:15;;;;;;;5.38;4.68;;;;;;;15.84;73.19;98547.28;4992082;28;20038;-71
2023/09/15 06:25:40;;;;;;;4.70;4.20;;;;;;;16.00;73.07;98550.81;4975011;28;20026;-71
2023/09/15 06:28:06;;;;;;;5.55;4.40;;;;;;;16.14;72.31;98541.88;4975032;28;20485;-72
2023/09/15 06:30:31;;;;;;;6.55;4.38;;;;;;;16.14;71.56;98531.00;4958771;28;20025;-71
2023/09/15 06:32:57;;;;;;;5.07;4.15;;;;;;;16.35;71.28;98543.50;4991768;28;20117;-71
2023/09/15 06:35:23;;;;;;;4.85;4.35;;;;;;;16.45;70.84;98542.66;4992287;28;20041;-71
2023/09/15 06:37:48;;;;;;;4.53;4.13;;;;;;;16.42;70.73;98533.16;4974957;28;20035;-71
2023/09/15 06:40:13;;;;;;;4.68;3.90;;;;;;;16.59;70.53;98544.56;4992210;28;20029;-71
2023/09/15 06:42:39;;;;;;;5.38;3.72;;;;;;;16.73;69.92;98541.28;4958007;28;20716;-71
2023/09/15 06:45:07;;;;;;;4.50;4.10;;;;;;;16.81;69.74;98540.72;4974675;28;20018;-71
2023/09/15 06:47:32;;;;;;;6.40;5.80;;;;;;;16.79;69.78;98542.91;4978560;28;20505;-72
2023/09/15 06:49:58;;;;;;;7.00;6.10;;;;;;;16.54;70.19;98509.25;4992061;28;20466;-71
2023/09/15 06:52:23;;;;;;;5.15;4.65;;;;;;;16.77;70.34;98555.97;4991716;28;20046;-71
2023/09/15 06:54:48;;;;;;;4.13;3.60;;;;;;;16.81;69.75;98535.28;4955418;28;20114;-72
2023/09/15 06:57:14;;;;;;;6.28;3.95;;;;;;;16.96;69.15;98532.53;4950811;28;20034;-71
2023/09/15 06:59:39;;;;;;;8.02;3.42;;;;;;;17.17;68.59;98550.41;4992036;28;20537;-71
2023/09/15 07:02:04;;;;;;;5.53;3.50;;;;;;;17.27;68.36;98547.63;4974527;28;20045;-73
2023/09/15 07:04:30;;;;;;;4.97;3.67;;;;;;;17.29;67.81;98540.03;4974317;28;20569;-71
2023/09/15 07:06:55;;;;;;;5.63;3.92;;;;;;;17.42;67.46;98547.56;4974562;28;20057;-71
2023/09/15 07:09:24;;;;;;;4.95;3.55;;;;;;;17.51;67.14;98556.81;4958548;28;20081;-71
2023/09/15 07:11:49;;;;;;;4.07;3.67;;;;;;;17.62;66.83;98565.75;4974856;28;20034;-71
2023/09/15 07:14:15;;;;;;;4.90;3.80;;;;;;;17.65;66.57;98555.09;4974016;28;20478;-71
2023/09/15 07:16:41;;;;;;;4.43;3.15;;;;;;;17.68;66.10;98543.66;4991897;28;20481;-71
2023/09/15 07:19:06;;;;;;;4.18;3.55;;;;;;;17.83;65.75;98559.91;4991951;28;20034;-71
2023/09/15 07:21:31;;;;;;;5.45;3.28;;;;;;;17.85;65.48;98552.25;4974457;28;20034;-72
2023/09/15 07:23:59;;;;;;;4.82;3.42;;;;;;;17.90;65.21;98549.50;4991442;28;20029;-72
2023/09/15 07:26:26;;;;;;;3.88;3.38;;;;;;;17.99;64.77;98551.63;4974798;28;20457;-72
2023/09/15 07:28:52;;;;;;;4.57;3.28;;;;;;;18.11;64.80;98554.81;4991802;28;20030;-71
2023/09/15 07:31:19;;;;;;;5.97;3.50;;;;;;;18.14;64.46;98554.22;4991689;28;20166;-72
2023/09/15 07:33:45;;;;;;;5.70;3.80;;;;;;;18.12;64.52;98550.97;4973800;28;20081;-71
2023/09/15 07:36:10;;;;;;;6.68;3.67;;;;;;;18.27;63.81;98559.88;4991808;28;20035;-71
2023/09/15 07:38:35;;;;;;;3.55;3.25;;;;;;;18.35;63.76;98555.69;4991692;28;20517;-72
2023/09/15 07:41:01;;;;;;;6.28;3.63;;;;;;;18.43;63.80;98552.38;4991679;28;20038;-71
2023/09/15 07:43:26;;;;;;;3.80;3.40;;;;;;;18.39;63.63;98535.75;4991355;28;20033;-72
2023/09/15 07:45:52;;;;;;;4.82;4.10;;;;;;;18.56;63.48;98554.44;4974095;28;20113;-72
2023/09/15 07:48:17;;;;;;;6.32;3.78;;;;;;;18.53;63.15;98535.91;4991592;28;20500;-73
2023/09/15 07:50:43;;;;;;;4.65;3.70;;;;;;;18.66;63.17;98551.63;4958229;28;20499;-71
2023/09/15 07:53:08;;;;;;;5.15;4.00;;;;;;;18.70;63.14;98540.94;4991743;28;20109;-71
2023/09/15 07:55:33;;;;;;;5.43;3.65;;;;;;;18.81;63.04;98545.22;4995117;28;20030;-72
2023/09/15 07:57:59;;;;;;;6.40;3.85;;;;;;;18.86;62.88;98540.50;4995093;28;20440;-72
2023/09/15 08:00:24;;;;;;;5.47;3.50;;;;;;;18.94;62.63;98541.78;4994975;28;20048;-72
2023/09/15 08:02:50;;;;;;;5.28;4.03;;;;;;;18.86;62.78;98532.31;4977154;28;20018;-72
2023/09/15 08:05:15;;;;;;;4.00;3.60;;;;;;;19.02;62.40;98544.69;4977482;28;20038;-71
2023/09/15 08:07:44;;;;;;;3.60;3.20;;;;;;;19.04;62.45;98537.00;4990488;28;20050;-71
2023/09/15 08:10:14;;;;;;;5.10;3.25;;;;;;;19.17;62.33;98536.34;4977808;28;20049;-73
2023/09/15 08:12:40;;;;;;;4.90;3.70;;;;;;;19.26;62.58;98534.56;4976716;28;20494;-71
2023/09/15 08:15:06;;;;;;;4.30;3.88;;;;;;;19.23;62.43;98524.22;4977269;28;20134;-74
2023/09/15 08:17:31;;;;;;;4.25;3.50;;;;;;;19.39;62.41;98537.75;4994668;28;20034;-71
2023/09/15 08:19:57;;;;;;;4.45;4.05;;;;;;;19.43;62.35;98527.84;4977181;28;20528;-71
2023/09/15 08:22:26;;;;;;;5.95;3.83;;;;;;;19.52;62.09;98526.06;4960492;28;20026;-72
2023/09/15 08:24:52;;;;;;;4.72;3.95;;;;;;;19.62;62.08;98521.31;4977740;28;20097;-72
2023/09/15 08:27:18;;;;;;;4.38;3.97;;;;;;;19.64;61.83;98521.00;4977093;28;20490;-71
2023/09/15 08:29:43;;;;;;;6.05;4.07;;;;;;;19.67;61.84;98528.63;4976672;28;20129;-71
2023/09/15 08:32:09;;;;;;;4.57;3.80;;;;;;;19.67;61.95;98518.50;4976775;28;20149;-71
2023/09/15 08:34:35;;;;;;;6.80;3.95;;;;;;;19.77;61.61;98522.97;4957027;28;20410;-71
2023/09/15 08:37:00;;;;;;;5.38;4.45;;;;;;;19.68;61.77;98513.81;4976614;28;20096;-72
2023/09/15 08:39:26;;;;;;;6.05;4.05;;;;;;;19.71;61.41;98518.72;4994005;28;20418;-70
2023/09/15 08:41:54;;;;;;;5.00;4.22;;;;;;;19.75;61.23;98506.06;4976593;28;20046;-71
2023/09/15 08:44:20;;;;;;;4.70;3.97;;;;;;;19.89;62.03;98509.69;4976145;28;20092;-72
2023/09/15 08:46:48;;;;;;;4.32;3.92;;;;;;;20.09;61.68;98524.97;4993883;28;20034;-71
2023/09/15 08:49:14;;;;;;;4.47;3.70;;;;;;;20.16;61.31;98509.81;4976853;28;20042;-73
2023/09/15 08:51:41;;;;;;;5.72;4.05;;;;;;;20.32;60.81;98519.41;4976114;28;20489;-71
2023/09/15 08:54:06;;;;;;;5.00;4.25;;;;;;;20.32;60.65;98516.69;4975827;28;20034;-73
2023/09/15 08:56:32;;;;;;;4.35;3.63;;;;;;;20.37;60.65;98522.06;4976365;28;20036;-72
2023/09/15 08:58:58;;;;;;;6.00;3.97;;;;;;;20.46;60.27;98520.28;4957108;28;20430;-71
2023/09/15 09:01:24;;;;;;;7.65;3.83;;;;;;;20.59;60.61;98519.47;4975581;28;20390;-73
2023/09/15 09:03:49;;;;;;;5.35;4.30;;;;;;;20.72;60.13;98522.53;4975692;28;20038;-74
2023/09/15 09:06:16;;;;;;;4.00;3.60;;;;;;;20.81;59.78;98518.00;4993846;28;20022;-73
2023/09/15 09:08:47;;;;;;;5.22;4.32;;;;;;;20.86;59.10;98512.41;4976364;28;20040;-74
2023/09/15 09:11:13;;;;;;;4.55;3.92;;;;;;;20.96;58.87;98520.41;4947257;28;20427;-73
2023/09/15 09:13:39;;;;;;;4.97;4.00;;;;;;;21.08;58.97;98520.75;4993086;28;20030;-74
2023/09/15 09:16:05;;;;;;;4.88;3.90;;;;;;;21.08;58.93;98504.31;4960079;28;20038;-75
2023/09/15 09:18:32;;;;;;;4.72;4.25;;;;;;;21.29;58.70;98516.50;4987031;28;20084;-74
2023/09/15 09:20:57;;;;;;;5.47;4.50;;;;;;;21.41;58.65;98511.31;4976160;28;20030;-75
2023/09/15 09:23:22;;;;;;;5.10;4.03;;;;;;;21.59;58.31;98515.00;4975725;28;20030;-73
2023/09/15 09:25:48;;;;;;;6.78;3.90;;;;;;;21.68;57.52;98508.50;4993381;28;20044;-73
2023/09/15 09:28:14;;;;;;;6.50;4.38;;;;;;;21.62;57.54;98504.25;4975970;28;20034;-74
2023/09/15 09:30:40;;;;;;;4.63;3.80;;;;;;;21.69;57.67;98510.13;4975797;28;20053;-71
2023/09/15 09:33:08;;;;;;;5.22;4.40;;;;;;;21.66;57.49;98518.16;4959402;28;20045;-72
2023/09/15 09:35:34;;;;;;;4.10;3.70;;;;;;;21.66;58.02;98498.97;4976340;28;20130;-72
2023/09/15 09:38:01;;;;;;;6.13;4.50;;;;;;;21.79;57.82;98504.44;4976043;28;20109;-71
2023/09/15 09:40:26;;;;;;;4.80;4.30;;;;;;;21.75;57.32;98508.09;4993200;28;20513;-72
2023/09/15 09:42:52;;;;;;;5.07;4.35;;;;;;;21.62;57.57;98493.28;4975372;28;20023;-71
2023/09/15 09:45:24;;;;;;;6.07;4.43;;;;;;;21.85;57.52;98508.69;4956436;28;20441;-71
2023/09/15 09:47:50;;;;;;;5.50;4.38;;;;;;;21.98;57.72;98512.53;4953764;28;20081;-71
2023/09/15 09:50:15;;;;;;;5.57;4.60;;;;;;;22.04;57.15;98500.28;4992766;28;20050;-71
2023/09/15 09:52:41;;;;;;;4.32;3.92;;;;;;;22.03;57.43;98476.75;4975920;28;20081;-73
2023/09/15 09:55:10;;;;;;;4.60;4.07;;;;;;;22.19;56.85;98479.91;4992781;28;20026;-73
2023/09/15 09:57:39;;;;;;;5.50;4.30;;;;;;;22.28;56.67;98489.00;4975330;28;20034;-73
2023/09/15 10:00:09;;;;;;;4.75;4.05;;;;;;;22.29;56.60;98482.38;4975209;28;20030;-72
2023/09/15 10:02:36;;;;;;;5.20;4.70;;;;;;;22.28;56.33;98489.00;4958874;28;20044;-73
2023/09/15 10:05:03;;;;;;;4.60;4.20;;;;;;;22.34;56.10;98479.50;4959288;28;20030;-73
2023/09/15 10:07:29;;;;;;;4.95;4.18;;;;;;;22.31;55.75;98460.94;4959415;28;20045;-73
2023/09/15 10:09:55;;;;;;;4.80;4.05;;;;;;;22.57;55.60;98486.59;4959176;28;20029;-71
2023/09/15 10:12:20;;;;;;;4.60;3.60;;;;;;;22.54;55.72;98481.75;4974952;28;20459;-73
2023/09/15 10:14:46;;;;;;;4.10;3.60;;;;;;;22.66;56.40;98490.25;4975417;28;20033;-73
2023/09/15 10:17:12;;;;;;;5.35;4.85;;;;;;;22.72;55.93;98488.97;4991988;28;20038;-73
2023/09/15 10:19:39;;;;;;;5.07;4.20;;;;;;;22.73;55.37;98479.63;4975627;28;20030;-73
2023/09/15 10:22:05;;;;;;;5.00;4.13;;;;;;;22.65;55.47;98483.13;4993355;28;20038;-73
2023/09/15 10:24:31;;;;;;;4.60;4.20;;;;;;;22.75;55.26;98477.34;4992062;28;20037;-72
2023/09/15 10:26:56;;;;;;;4.70;4.30;;;;;;;22.73;55.08;98465.88;4958808;28;20038;-72
2023/09/15 10:29:29;;;;;;;4.82;4.05;;;;;;;22.83;55.76;98475.75;4975005;28;20046;-75
2023/09/15 10:31:54;;;;;;;4.28;3.88;;;;;;;22.92;55.31;98449.94;4958627;28;20118;-73
2023/09/15 10:34:20;;;;;;;5.50;4.40;;;;;;;22.92;54.95;98446.41;4958660;28;20651;-74
2023/09/15 10:36:46;;;;;;;5.07;4.40;;;;;;;23.09;54.82;98440.94;4975055;28;20042;-75
2023/09/15 10:39:17;;;;;;;4.75;3.95;;;;;;;23.26;54.17;98458.28;4992325;28;20030;-75
2023/09/15 10:41:43;;;;;;;5.50;4.47;;;;;;;23.35;54.16;98463.81;4974735;28;20041;-75
2023/09/15 10:44:08;;;;;;;5.25;4.32;;;;;;;23.53;54.02;98464.66;4958395;28;20081;-75
2023/09/15 10:46:42;;;;;;;4.43;4.03;;;;;;;23.47;53.38;98438.44;4958908;28;20458;-75
2023/09/15 10:49:20;;;;;;;5.22;3.95;;;;;;;23.69;53.75;98449.28;4983109;28;20506;-74
2023/09/15 10:51:59;;;;;;;4.50;4.10;;;;;;;23.77;52.80;98441.06;4974541;28;20046;-75
2023/09/15 10:54:26;;;;;;;5.53;4.10;;;;;;;23.86;53.03;98449.28;4956760;28;20070;-75
2023/09/15 10:56:52;;;;;;;4.63;3.90;;;;;;;23.93;53.17;98435.84;4958366;28;20026;-75
2023/09/15 10:59:18;;;;;;;4.13;3.80;;;;;;;24.17;53.39;98449.94;4942580;28;20049;-75
2023/09/15 11:01:44;;;;;;;4.78;4.03;;;;;;;24.15;52.42;98443.16;4992088;28;20027;-74
2023/09/15 11:04:20;;;;;;;4.30;3.90;;;;;;;24.36;51.63;98439.38;4974279;28;20035;-75
2023/09/15 11:06:53;;;;;;;4.63;3.92;;;;;;;24.48;50.77;98442.25;4959254;28;20041;-75
2023/09/15 11:09:20;;;;;;;4.80;3.88;;;;;;;24.59;50.73;98439.94;4974614;28;20042;-76
2023/09/15 11:11:47;;;;;;;4.53;3.90;;;;;;;24.72;50.82;98442.47;4974197;28;20120;-75
2023/09/15 11:14:20;;;;;;;4.68;4.28;;;;;;;24.87;50.50;98445.84;4991892;28;20039;-75
2023/09/15 11:16:49;;;;;;;4.38;3.97;;;;;;;24.75;50.41;98438.25;4975080;28;20129;-73
2023/09/15 11:19:16;;;;;;;5.38;4.70;;;;;;;24.88;49.42;98409.69;4975124;28;20030;-74
2023/09/15 11:21:41;;;;;;;4.50;4.10;;;;;;;24.93;49.04;98408.69;4959079;28;20062;-75
2023/09/15 11:24:09;;;;;;;4.25;3.85;;;;;;;25.02;49.27;98423.25;4991586;28;20038;-75
2023/09/15 11:26:35;;;;;;;9.50;4.30;;;;;;;25.13;49.61;98418.97;4958519;28;20042;-75
2023/09/15 11:29:00;;;;;;;6.40;4.28;;;;;;;25.13;49.22;98413.47;4977965;28;20035;-75